sensor_id;sensor_type;location;lat;lon;timestamp;pressure;altitude;pressure_sealevel;temperature;humidity
13456;BME280;6800;50.940;6.940;2024-03-25T00:01:39;100001.53;;;19.14;36.52
13456;BME280;6800;50.940;6.940;2024-03-25T00:05:39;100010.50;;;19.47;36.02
13456;BME280;6800;50.940;6.940;2024-03-25T00:09:40;100021.97;;;19.29;36.49
13456;BME280;6800;50.940;6.940;2024-03-25T00:13:40;100020.81;;;19.32;35.84
13456;BME280;6800;50.940;6.940;2024-03-25T00:17:41;100025.41;;;19.22;36.32
13456;BME280;6800;50.940;6.940;2024-03-25T00:21:42;100033.38;;;19.30;35.99
13456;BME280;6800;50.940;6.940;2024-03-25T00:25:43;100027.56;;;19.26;36.30
13456;BME280;6800;50.940;6.940;2024-03-25T00:29:44;100028.69;;;19.16;35.86
13456;BME280;6800;50.940;6.940;2024-03-25T00:33:44;100019.41;;;18.86;36.65
13456;BME280;6800;50.940;6.940;2024-03-25T00:37:45;100024.19;;;18.83;36.40
13456;BME280;6800;50.940;6.940;2024-03-25T00:41:46;100024.19;;;18.83;37.03
13456;BME280;6800;50.940;6.940;2024-03-25T00:45:46;100024.72;;;18.86;36.71
13456;BME280;6800;50.940;6.940;2024-03-25T00:49:47;100016.94;;;18.85;36.81
13456;BME280;6800;50.940;6.940;2024-03-25T00:53:47;100013.63;;;19.16;36.65
13456;BME280;6800;50.940;6.940;2024-03-25T00:57:48;100010.66;;;19.19;36.67
13456;BME280;6800;50.940;6.940;2024-03-25T01:01:48;100020.81;;;19.32;36.49
13456;BME280;6800;50.940;6.940;2024-03-25T01:05:49;100018.00;;;19.25;36.42
13456;BME280;6800;50.940;6.940;2024-03-25T01:09:49;100010.97;;;19.42;36.58
13456;BME280;6800;50.940;6.940;2024-03-25T01:13:50;100006.59;;;19.33;36.53
13456;BME280;6800;50.940;6.940;2024-03-25T01:17:51;100018.97;;;19.24;36.99
13456;BME280;6800;50.940;6.940;2024-03-25T01:21:51;100016.69;;;19.29;37.03
13456;BME280;6800;50.940;6.940;2024-03-25T01:25:52;100006.22;;;19.62;36.30
13456;BME280;6800;50.940;6.940;2024-03-25T01:29:53;100010.63;;;19.45;36.50
13456;BME280;6800;50.940;6.940;2024-03-25T01:33:53;100014.59;;;19.41;36.57
13456;BME280;6800;50.940;6.940;2024-03-25T01:37:54;100018.09;;;19.16;36.85
13456;BME280;6800;50.940;6.940;2024-03-25T01:41:54;100018.16;;;19.32;36.31
13456;BME280;6800;50.940;6.940;2024-03-25T01:45:55;100014.50;;;19.25;36.92
13456;BME280;6800;50.940;6.940;2024-03-25T01:49:55;100023.81;;;18.78;36.98
13456;BME280;6800;50.940;6.940;2024-03-25T01:53:58;100013.50;;;19.26;36.13
13456;BME280;6800;50.940;6.940;2024-03-25T01:57:59;100012.19;;;18.70;37.33
13456;BME280;6800;50.940;6.940;2024-03-25T02:02:00;100015.38;;;19.00;36.48
13456;BME280;6800;50.940;6.940;2024-03-25T02:06:04;100012.84;;;19.24;36.44
13456;BME280;6800;50.940;6.940;2024-03-25T02:10:07;100021.34;;;19.02;36.38
13456;BME280;6800;50.940;6.940;2024-03-25T02:14:07;100022.66;;;18.72;36.87
13456;BME280;6800;50.940;6.940;2024-03-25T02:18:09;100020.72;;;18.82;36.90
13456;BME280;6800;50.940;6.940;2024-03-25T02:22:12;100037.94;;;18.86;37.15
13456;BME280;6800;50.940;6.940;2024-03-25T02:26:12;100034.69;;;19.00;36.41
13456;BME280;6800;50.940;6.940;2024-03-25T02:30:14;100033.00;;;18.91;36.86
13456;BME280;6800;50.940;6.940;2024-03-25T02:34:14;100020.28;;;18.69;36.65
13456;BME280;6800;50.940;6.940;2024-03-25T02:38:15;100027.94;;;18.98;36.46
13456;BME280;6800;50.940;6.940;2024-03-25T02:42:18;100021.09;;;18.87;36.58
13456;BME280;6800;50.940;6.940;2024-03-25T02:46:18;100020.25;;;19.12;35.84
13456;BME280;6800;50.940;6.940;2024-03-25T02:50:19;100024.41;;;18.89;36.47
13456;BME280;6800;50.940;6.940;2024-03-25T02:54:19;100021.63;;;18.99;36.09
13456;BME280;6800;50.940;6.940;2024-03-25T02:58:20;100020.97;;;18.71;36.69
13456;BME280;6800;50.940;6.940;2024-03-25T03:02:20;100027.50;;;19.10;36.15
13456;BME280;6800;50.940;6.940;2024-03-25T03:06:21;100010.50;;;19.13;35.90
13456;BME280;6800;50.940;6.940;2024-03-25T03:10:22;100007.53;;;19.24;36.11
13456;BME280;6800;50.940;6.940;2024-03-25T03:14:23;100008.81;;;19.12;35.60
13456;BME280;6800;50.940;6.940;2024-03-25T03:18:23;100007.00;;;19.12;36.13
13456;BME280;6800;50.940;6.940;2024-03-25T03:22:24;100000.97;;;19.02;35.84
13456;BME280;6800;50.940;6.940;2024-03-25T03:26:24;99998.44;;;18.85;36.35
13456;BME280;6800;50.940;6.940;2024-03-25T03:30:27;100004.25;;;18.96;36.34
13456;BME280;6800;50.940;6.940;2024-03-25T03:34:28;99998.16;;;18.96;35.94
13456;BME280;6800;50.940;6.940;2024-03-25T03:38:29;100004.06;;;18.90;36.28
13456;BME280;6800;50.940;6.940;2024-03-25T03:42:29;100004.59;;;18.93;35.94
13456;BME280;6800;50.940;6.940;2024-03-25T03:46:29;100009.84;;;18.85;36.16
13456;BME280;6800;50.940;6.940;2024-03-25T03:50:30;100010.88;;;19.00;35.92
13456;BME280;6800;50.940;6.940;2024-03-25T03:54:31;100009.97;;;18.84;35.62
13456;BME280;6800;50.940;6.940;2024-03-25T03:58:31;100005.31;;;18.78;36.22
13456;BME280;6800;50.940;6.940;2024-03-25T04:02:32;100005.47;;;18.50;36.63
13456;BME280;6800;50.940;6.940;2024-03-25T04:06:33;100010.72;;;18.68;36.08
13456;BME280;6800;50.940;6.940;2024-03-25T04:10:34;100015.53;;;18.47;36.26
13456;BME280;6800;50.940;6.940;2024-03-25T04:14:36;100013.69;;;18.47;36.48
13456;BME280;6800;50.940;6.940;2024-03-25T04:18:36;100010.38;;;18.28;36.47
13456;BME280;6800;50.940;6.940;2024-03-25T04:22:41;100005.69;;;18.22;36.63
13456;BME280;6800;50.940;6.940;2024-03-25T04:26:42;100001.78;;;18.08;36.33
13456;BME280;6800;50.940;6.940;2024-03-25T04:30:42;100005.72;;;18.04;36.66
13456;BME280;6800;50.940;6.940;2024-03-25T04:34:43;100005.16;;;18.01;36.88
13456;BME280;6800;50.940;6.940;2024-03-25T04:38:43;100011.28;;;18.01;37.02
13456;BME280;6800;50.940;6.940;2024-03-25T04:42:44;100009.09;;;17.79;37.42
13456;BME280;6800;50.940;6.940;2024-03-25T04:46:45;100009.25;;;17.95;37.10
13456;BME280;6800;50.940;6.940;2024-03-25T04:50:45;100010.59;;;17.99;37.11
13456;BME280;6800;50.940;6.940;2024-03-25T04:54:48;100009.38;;;17.76;37.42
13456;BME280;6800;50.940;6.940;2024-03-25T04:58:48;100015.13;;;17.71;37.53
13456;BME280;6800;50.940;6.940;2024-03-25T05:02:49;100018.16;;;17.76;37.29
13456;BME280;6800;50.940;6.940;2024-03-25T05:06:52;100009.53;;;17.74;37.74
13456;BME280;6800;50.940;6.940;2024-03-25T05:10:52;100009.59;;;17.65;37.62
13456;BME280;6800;50.940;6.940;2024-03-25T05:14:53;100020.16;;;17.65;37.66
13456;BME280;6800;50.940;6.940;2024-03-25T05:18:53;100015.78;;;17.73;37.85
13456;BME280;6800;50.940;6.940;2024-03-25T05:22:54;100032.00;;;17.61;37.64
13456;BME280;6800;50.940;6.940;2024-03-25T05:26:55;100023.28;;;17.78;37.42
13456;BME280;6800;50.940;6.940;2024-03-25T05:30:55;100016.72;;;17.82;37.53
13456;BME280;6800;50.940;6.940;2024-03-25T05:34:56;100023.22;;;17.60;37.68
13456;BME280;6800;50.940;6.940;2024-03-25T05:38:56;100014.28;;;17.71;37.66
13456;BME280;6800;50.940;6.940;2024-03-25T05:42:57;100015.34;;;17.78;37.13
13456;BME280;6800;50.940;6.940;2024-03-25T05:46:58;100017.31;;;17.76;37.45
13456;BME280;6800;50.940;6.940;2024-03-25T05:51:02;100015.31;;;17.87;37.32
13456;BME280;6800;50.940;6.940;2024-03-25T05:55:03;100017.59;;;17.73;37.53
13456;BME280;6800;50.940;6.940;2024-03-25T05:59:04;100022.44;;;17.77;37.48
13456;BME280;6800;50.940;6.940;2024-03-25T06:03:04;100029.22;;;17.80;37.72
13456;BME280;6800;50.940;6.940;2024-03-25T06:07:05;100030.53;;;17.93;37.38
13456;BME280;6800;50.940;6.940;2024-03-25T06:11:06;100034.16;;;17.92;37.15
13456;BME280;6800;50.940;6.940;2024-03-25T06:15:07;100037.63;;;18.11;37.23
13456;BME280;6800;50.940;6.940;2024-03-25T06:19:08;100035.22;;;18.00;36.65
13456;BME280;6800;50.940;6.940;2024-03-25T06:23:08;100029.28;;;18.15;36.63
13456;BME280;6800;50.940;6.940;2024-03-25T06:27:09;100030.06;;;18.16;36.47
13456;BME280;6800;50.940;6.940;2024-03-25T06:31:09;100035.13;;;18.09;36.71
13456;BME280;6800;50.940;6.940;2024-03-25T06:35:28;100029.78;;;18.36;36.55
13456;BME280;6800;50.940;6.940;2024-03-25T06:39:28;100027.91;;;18.46;36.42
13456;BME280;6800;50.940;6.940;2024-03-25T06:43:29;100021.88;;;18.62;36.34
13456;BME280;6800;50.940;6.940;2024-03-25T06:47:30;100043.34;;;18.77;35.65
13456;BME280;6800;50.940;6.940;2024-03-25T06:51:30;100043.03;;;19.13;35.16
13456;BME280;6800;50.940;6.940;2024-03-25T06:55:32;100045.16;;;19.02;35.62
13456;BME280;6800;50.940;6.940;2024-03-25T06:59:32;100046.50;;;19.06;34.74
13456;BME280;6800;50.940;6.940;2024-03-25T07:03:36;100039.38;;;19.06;35.14
13456;BME280;6800;50.940;6.940;2024-03-25T07:07:37;100033.59;;;19.78;34.17
13456;BME280;6800;50.940;6.940;2024-03-25T07:11:37;100040.88;;;19.84;34.29
13456;BME280;6800;50.940;6.940;2024-03-25T07:15:38;100048.81;;;19.76;34.32
13456;BME280;6800;50.940;6.940;2024-03-25T07:19:39;100043.63;;;20.41;32.97
13456;BME280;6800;50.940;6.940;2024-03-25T07:23:40;100034.22;;;20.46;32.72
13456;BME280;6800;50.940;6.940;2024-03-25T07:27:41;100036.28;;;20.91;32.09
13456;BME280;6800;50.940;6.940;2024-03-25T07:31:41;100026.97;;;22.19;31.01
13456;BME280;6800;50.940;6.940;2024-03-25T07:35:42;100022.09;;;22.23;29.98
13456;BME280;6800;50.940;6.940;2024-03-25T07:39:42;100018.31;;;22.63;29.39
13456;BME280;6800;50.940;6.940;2024-03-25T07:43:43;100020.38;;;23.84;27.51
13456;BME280;6800;50.940;6.940;2024-03-25T07:47:44;100028.91;;;23.73;28.75
13456;BME280;6800;50.940;6.940;2024-03-25T07:51:45;100020.44;;;24.05;27.74
13456;BME280;6800;50.940;6.940;2024-03-25T07:55:45;100019.56;;;24.68;26.67
13456;BME280;6800;50.940;6.940;2024-03-25T07:59:54;100018.63;;;24.54;26.95
13456;BME280;6800;50.940;6.940;2024-03-25T08:03:57;100013.22;;;25.78;25.47
13456;BME280;6800;50.940;6.940;2024-03-25T08:07:58;100017.03;;;26.10;24.27
13456;BME280;6800;50.940;6.940;2024-03-25T08:11:58;100019.00;;;25.88;24.53
13456;BME280;6800;50.940;6.940;2024-03-25T08:15:59;100018.16;;;27.51;22.85
13456;BME280;6800;50.940;6.940;2024-03-25T08:19:59;100013.84;;;27.50;22.80
13456;BME280;6800;50.940;6.940;2024-03-25T08:24:00;100004.81;;;25.94;23.62
13456;BME280;6800;50.940;6.940;2024-03-25T08:28:00;100002.66;;;26.44;23.38
13456;BME280;6800;50.940;6.940;2024-03-25T08:32:01;100013.38;;;26.63;23.20
13456;BME280;6800;50.940;6.940;2024-03-25T08:36:01;100011.84;;;27.13;21.90
13456;BME280;6800;50.940;6.940;2024-03-25T08:40:06;100009.66;;;28.05;20.94
13456;BME280;6800;50.940;6.940;2024-03-25T08:44:07;100011.53;;;28.61;20.82
13456;BME280;6800;50.940;6.940;2024-03-25T08:48:07;100005.13;;;29.22;19.62
13456;BME280;6800;50.940;6.940;2024-03-25T08:52:08;100003.50;;;27.98;20.11
13456;BME280;6800;50.940;6.940;2024-03-25T08:56:09;100002.88;;;28.59;20.34
13456;BME280;6800;50.940;6.940;2024-03-25T09:00:10;99998.31;;;30.68;17.59
13456;BME280;6800;50.940;6.940;2024-03-25T09:04:12;99992.97;;;28.95;19.39
13456;BME280;6800;50.940;6.940;2024-03-25T09:08:12;99990.34;;;28.89;19.70
13456;BME280;6800;50.940;6.940;2024-03-25T09:12:13;99991.72;;;30.00;18.35
13456;BME280;6800;50.940;6.940;2024-03-25T09:16:13;99987.53;;;28.34;19.31
13456;BME280;6800;50.940;6.940;2024-03-25T09:20:15;99985.63;;;29.45;18.52
13456;BME280;6800;50.940;6.940;2024-03-25T09:24:20;99985.59;;;28.17;19.83
13456;BME280;6800;50.940;6.940;2024-03-25T09:28:20;99977.38;;;30.29;17.88
13456;BME280;6800;50.940;6.940;2024-03-25T09:32:21;99963.47;;;33.14;15.56
13456;BME280;6800;50.940;6.940;2024-03-25T09:36:22;99964.19;;;33.10;15.79
13456;BME280;6800;50.940;6.940;2024-03-25T09:40:22;99970.91;;;29.48;19.11
13456;BME280;6800;50.940;6.940;2024-03-25T09:44:24;99955.56;;;34.41;14.55
13456;BME280;6800;50.940;6.940;2024-03-25T09:48:25;99949.91;;;34.11;14.85
13456;BME280;6800;50.940;6.940;2024-03-25T09:52:26;99950.78;;;33.41;15.13
13456;BME280;6800;50.940;6.940;2024-03-25T09:56:26;99946.59;;;35.34;14.15
13456;BME280;6800;50.940;6.940;2024-03-25T10:00:27;99949.38;;;34.87;15.01
13456;BME280;6800;50.940;6.940;2024-03-25T10:04:27;99932.19;;;35.23;13.80
13456;BME280;6800;50.940;6.940;2024-03-25T10:08:28;99924.47;;;34.17;14.47
13456;BME280;6800;50.940;6.940;2024-03-25T10:12:32;99920.63;;;31.17;16.55
13456;BME280;6800;50.940;6.940;2024-03-25T10:16:32;99913.72;;;34.27;13.86
13456;BME280;6800;50.940;6.940;2024-03-25T10:20:33;99909.53;;;31.41;15.59
13456;BME280;6800;50.940;6.940;2024-03-25T10:24:42;99909.91;;;32.23;15.63
13456;BME280;6800;50.940;6.940;2024-03-25T10:28:43;99904.03;;;34.04;13.44
13456;BME280;6800;50.940;6.940;2024-03-25T10:32:43;99890.59;;;33.88;13.84
13456;BME280;6800;50.940;6.940;2024-03-25T10:36:44;99889.56;;;35.24;12.13
13456;BME280;6800;50.940;6.940;2024-03-25T10:40:45;99884.06;;;34.52;13.07
13456;BME280;6800;50.940;6.940;2024-03-25T10:44:47;99876.63;;;35.66;12.35
13456;BME280;6800;50.940;6.940;2024-03-25T10:48:54;99871.06;;;34.12;13.42
13456;BME280;6800;50.940;6.940;2024-03-25T10:52:58;99867.72;;;33.73;14.01
13456;BME280;6800;50.940;6.940;2024-03-25T10:57:03;99856.19;;;32.86;14.68
13456;BME280;6800;50.940;6.940;2024-03-25T11:01:04;99840.88;;;33.45;14.04
13456;BME280;6800;50.940;6.940;2024-03-25T11:05:05;99846.13;;;33.52;14.03
13456;BME280;6800;50.940;6.940;2024-03-25T11:09:06;99838.44;;;35.06;13.16
13456;BME280;6800;50.940;6.940;2024-03-25T11:13:19;99833.03;;;32.52;14.61
13456;BME280;6800;50.940;6.940;2024-03-25T11:17:20;99832.75;;;32.32;14.66
13456;BME280;6800;50.940;6.940;2024-03-25T11:21:26;99842.34;;;29.50;17.07
13456;BME280;6800;50.940;6.940;2024-03-25T11:25:30;99824.63;;;29.12;16.51
13456;BME280;6800;50.940;6.940;2024-03-25T11:29:31;99826.00;;;29.21;17.00
13456;BME280;6800;50.940;6.940;2024-03-25T11:33:31;99825.34;;;30.02;17.31
13456;BME280;6800;50.940;6.940;2024-03-25T11:37:31;99809.16;;;31.28;15.78
13456;BME280;6800;50.940;6.940;2024-03-25T11:41:32;99802.34;;;33.33;14.50
13456;BME280;6800;50.940;6.940;2024-03-25T11:45:33;99785.78;;;33.56;13.49
13456;BME280;6800;50.940;6.940;2024-03-25T11:49:34;99786.22;;;33.17;12.87
13456;BME280;6800;50.940;6.940;2024-03-25T11:53:34;99776.94;;;34.03;12.18
13456;BME280;6800;50.940;6.940;2024-03-25T11:57:35;99775.81;;;32.00;13.74
13456;BME280;6800;50.940;6.940;2024-03-25T12:01:36;99773.75;;;32.07;13.79
13456;BME280;6800;50.940;6.940;2024-03-25T12:05:39;99776.03;;;32.15;13.94
13456;BME280;6800;50.940;6.940;2024-03-25T12:09:41;99771.81;;;29.71;15.18
13456;BME280;6800;50.940;6.940;2024-03-25T12:14:01;99761.16;;;32.34;13.88
13456;BME280;6800;50.940;6.940;2024-03-25T12:18:02;99757.00;;;28.97;15.69
13456;BME280;6800;50.940;6.940;2024-03-25T12:22:02;99749.69;;;29.04;16.71
13456;BME280;6800;50.940;6.940;2024-03-25T12:26:04;99741.06;;;28.00;17.93
13456;BME280;6800;50.940;6.940;2024-03-25T12:30:09;99746.00;;;26.47;18.57
13456;BME280;6800;50.940;6.940;2024-03-25T12:34:12;99734.13;;;26.30;19.98
13456;BME280;6800;50.940;6.940;2024-03-25T12:38:25;99737.50;;;24.34;20.84
13456;BME280;6800;50.940;6.940;2024-03-25T12:42:26;99725.75;;;24.83;20.86
13456;BME280;6800;50.940;6.940;2024-03-25T12:46:30;99715.69;;;23.96;21.20
13456;BME280;6800;50.940;6.940;2024-03-25T12:50:30;99719.84;;;25.13;20.14
13456;BME280;6800;50.940;6.940;2024-03-25T12:54:32;99713.91;;;25.64;20.37
13456;BME280;6800;50.940;6.940;2024-03-25T12:58:33;99714.31;;;24.41;21.52
13456;BME280;6800;50.940;6.940;2024-03-25T13:02:34;99708.06;;;24.75;20.70
13456;BME280;6800;50.940;6.940;2024-03-25T13:06:35;99700.84;;;24.09;19.85
13456;BME280;6800;50.940;6.940;2024-03-25T13:10:35;99692.69;;;24.84;19.27
13456;BME280;6800;50.940;6.940;2024-03-25T13:14:36;99683.16;;;24.55;19.94
13456;BME280;6800;50.940;6.940;2024-03-25T13:18:36;99662.31;;;25.50;19.48
13456;BME280;6800;50.940;6.940;2024-03-25T13:22:37;99664.66;;;24.47;19.85
13456;BME280;6800;50.940;6.940;2024-03-25T13:26:38;99662.66;;;24.62;20.08
13456;BME280;6800;50.940;6.940;2024-03-25T13:30:39;99646.47;;;24.76;20.06
13456;BME280;6800;50.940;6.940;2024-03-25T13:34:39;99640.44;;;24.55;20.37
13456;BME280;6800;50.940;6.940;2024-03-25T13:38:40;99635.38;;;24.06;21.22
13456;BME280;6800;50.940;6.940;2024-03-25T13:42:41;99637.22;;;24.92;20.30
13456;BME280;6800;50.940;6.940;2024-03-25T13:46:41;99612.78;;;25.02;19.50
13456;BME280;6800;50.940;6.940;2024-03-25T13:50:42;99606.00;;;25.32;19.80
13456;BME280;6800;50.940;6.940;2024-03-25T13:54:43;99606.78;;;24.67;20.09
13456;BME280;6800;50.940;6.940;2024-03-25T13:58:43;99599.88;;;23.31;21.63
13456;BME280;6800;50.940;6.940;2024-03-25T14:02:44;99598.50;;;22.43;21.96
13456;BME280;6800;50.940;6.940;2024-03-25T14:06:44;99584.47;;;23.26;23.43
13456;BME280;6800;50.940;6.940;2024-03-25T14:10:56;99574.50;;;24.29;20.92
13456;BME280;6800;50.940;6.940;2024-03-25T14:14:57;99570.91;;;23.96;20.59
13456;BME280;6800;50.940;6.940;2024-03-25T14:18:57;99564.22;;;24.13;21.28
13456;BME280;6800;50.940;6.940;2024-03-25T14:22:58;99568.41;;;23.94;20.97
13456;BME280;6800;50.940;6.940;2024-03-25T14:26:58;99565.31;;;25.10;20.44
13456;BME280;6800;50.940;6.940;2024-03-25T14:30:59;99560.22;;;24.76;19.50
13456;BME280;6800;50.940;6.940;2024-03-25T14:34:59;99555.44;;;24.45;19.98
13456;BME280;6800;50.940;6.940;2024-03-25T14:39:01;99552.53;;;24.21;20.17
13456;BME280;6800;50.940;6.940;2024-03-25T14:43:01;99541.13;;;24.79;19.88
13456;BME280;6800;50.940;6.940;2024-03-25T14:47:03;99530.38;;;25.18;19.50
13456;BME280;6800;50.940;6.940;2024-03-25T14:51:03;99521.84;;;25.41;19.47
13456;BME280;6800;50.940;6.940;2024-03-25T14:55:04;99516.44;;;24.97;19.44
13456;BME280;6800;50.940;6.940;2024-03-25T14:59:05;99505.75;;;24.90;19.57
13456;BME280;6800;50.940;6.940;2024-03-25T15:03:05;99510.88;;;24.33;18.84
13456;BME280;6800;50.940;6.940;2024-03-25T15:07:06;99491.53;;;23.38;20.15
13456;BME280;6800;50.940;6.940;2024-03-25T15:11:06;99490.97;;;24.09;19.86
13456;BME280;6800;50.940;6.940;2024-03-25T15:15:08;99477.44;;;24.17;19.27
13456;BME280;6800;50.940;6.940;2024-03-25T15:19:10;99473.34;;;24.34;19.87
13456;BME280;6800;50.940;6.940;2024-03-25T15:23:11;99456.28;;;24.88;19.67
13456;BME280;6800;50.940;6.940;2024-03-25T15:27:12;99461.00;;;24.53;19.98
13456;BME280;6800;50.940;6.940;2024-03-25T15:31:13;99453.63;;;24.48;19.46
13456;BME280;6800;50.940;6.940;2024-03-25T15:35:13;99445.84;;;24.34;19.96
13456;BME280;6800;50.940;6.940;2024-03-25T15:39:14;99433.88;;;24.69;19.70
13456;BME280;6800;50.940;6.940;2024-03-25T15:43:14;99436.75;;;24.94;20.11
13456;BME280;6800;50.940;6.940;2024-03-25T15:47:15;99426.09;;;24.54;19.59
13456;BME280;6800;50.940;6.940;2024-03-25T15:51:15;99415.63;;;23.81;20.18
13456;BME280;6800;50.940;6.940;2024-03-25T15:55:17;99410.91;;;24.48;20.26
13456;BME280;6800;50.940;6.940;2024-03-25T15:59:19;99404.16;;;24.00;20.57
13456;BME280;6800;50.940;6.940;2024-03-25T16:03:19;99416.28;;;24.09;20.33
13456;BME280;6800;50.940;6.940;2024-03-25T16:07:19;99402.53;;;24.51;20.22
13456;BME280;6800;50.940;6.940;2024-03-25T16:11:20;99393.00;;;24.82;20.05
13456;BME280;6800;50.940;6.940;2024-03-25T16:15:21;99395.66;;;23.51;20.93
13456;BME280;6800;50.940;6.940;2024-03-25T16:19:21;99392.47;;;23.81;20.60
13456;BME280;6800;50.940;6.940;2024-03-25T16:23:22;99390.03;;;24.19;20.31
13456;BME280;6800;50.940;6.940;2024-03-25T16:27:22;99382.56;;;24.54;20.36
13456;BME280;6800;50.940;6.940;2024-03-25T16:31:23;99383.53;;;24.86;20.52
13456;BME280;6800;50.940;6.940;2024-03-25T16:35:23;99375.84;;;24.25;20.71
13456;BME280;6800;50.940;6.940;2024-03-25T16:39:24;99371.34;;;24.32;20.23
13456;BME280;6800;50.940;6.940;2024-03-25T16:43:24;99370.31;;;24.14;20.32
13456;BME280;6800;50.940;6.940;2024-03-25T16:47:25;99371.13;;;24.40;20.41
13456;BME280;6800;50.940;6.940;2024-03-25T16:51:28;99358.16;;;24.57;19.78
13456;BME280;6800;50.940;6.940;2024-03-25T16:55:29;99359.75;;;24.64;20.04
13456;BME280;6800;50.940;6.940;2024-03-25T16:59:29;99359.97;;;24.63;20.35
13456;BME280;6800;50.940;6.940;2024-03-25T17:03:30;99359.25;;;24.23;19.75
13456;BME280;6800;50.940;6.940;2024-03-25T17:07:31;99346.97;;;24.09;19.95
13456;BME280;6800;50.940;6.940;2024-03-25T17:11:31;99349.31;;;24.50;19.23
13456;BME280;6800;50.940;6.940;2024-03-25T17:15:32;99344.47;;;24.27;19.79
13456;BME280;6800;50.940;6.940;2024-03-25T17:19:33;99346.06;;;24.41;19.90
13456;BME280;6800;50.940;6.940;2024-03-25T17:23:33;99342.19;;;24.18;20.32
13456;BME280;6800;50.940;6.940;2024-03-25T17:27:34;99342.41;;;23.83;20.49
13456;BME280;6800;50.940;6.940;2024-03-25T17:31:35;99354.38;;;23.27;20.91
13456;BME280;6800;50.940;6.940;2024-03-25T17:35:36;99345.50;;;23.93;20.37
13456;BME280;6800;50.940;6.940;2024-03-25T17:39:36;99335.44;;;23.50;20.79
13456;BME280;6800;50.940;6.940;2024-03-25T17:43:37;99335.84;;;23.73;21.18
13456;BME280;6800;50.940;6.940;2024-03-25T17:47:38;99333.34;;;23.58;21.23
13456;BME280;6800;50.940;6.940;2024-03-25T17:51:38;99315.34;;;23.99;20.53
13456;BME280;6800;50.940;6.940;2024-03-25T17:55:39;99321.69;;;23.66;21.20
13456;BME280;6800;50.940;6.940;2024-03-25T17:59:39;99308.97;;;23.68;20.89
13456;BME280;6800;50.940;6.940;2024-03-25T18:03:40;99304.47;;;23.49;21.16
13456;BME280;6800;50.940;6.940;2024-03-25T18:07:41;99301.72;;;23.22;21.23
13456;BME280;6800;50.940;6.940;2024-03-25T18:11:43;99299.94;;;23.43;21.07
13456;BME280;6800;50.940;6.940;2024-03-25T18:15:51;99296.59;;;23.14;21.45
13456;BME280;6800;50.940;6.940;2024-03-25T18:19:52;99300.34;;;23.33;21.00
13456;BME280;6800;50.940;6.940;2024-03-25T18:23:52;99302.81;;;23.35;21.13
13456;BME280;6800;50.940;6.940;2024-03-25T18:27:53;99301.69;;;23.16;21.60
13456;BME280;6800;50.940;6.940;2024-03-25T18:31:54;99293.84;;;22.88;21.53
13456;BME280;6800;50.940;6.940;2024-03-25T18:35:59;99292.59;;;22.71;22.00
13456;BME280;6800;50.940;6.940;2024-03-25T18:40:00;99287.81;;;23.27;21.81
13456;BME280;6800;50.940;6.940;2024-03-25T18:44:02;99293.81;;;22.75;21.34
13456;BME280;6800;50.940;6.940;2024-03-25T18:48:05;99281.91;;;22.65;21.86
13456;BME280;6800;50.940;6.940;2024-03-25T18:52:06;99275.84;;;22.43;21.88
13456;BME280;6800;50.940;6.940;2024-03-25T18:56:06;99272.44;;;22.21;22.28
13456;BME280;6800;50.940;6.940;2024-03-25T19:00:10;99270.28;;;22.38;21.97
13456;BME280;6800;50.940;6.940;2024-03-25T19:04:11;99270.53;;;22.43;22.06
13456;BME280;6800;50.940;6.940;2024-03-25T19:08:11;99268.66;;;22.37;22.00
13456;BME280;6800;50.940;6.940;2024-03-25T19:12:12;99269.84;;;22.69;21.84
13456;BME280;6800;50.940;6.940;2024-03-25T19:16:12;99268.59;;;22.24;22.43
13456;BME280;6800;50.940;6.940;2024-03-25T19:20:13;99261.50;;;22.44;22.06
13456;BME280;6800;50.940;6.940;2024-03-25T19:24:14;99264.44;;;22.15;21.97
13456;BME280;6800;50.940;6.940;2024-03-25T19:28:16;99269.75;;;22.56;22.06
13456;BME280;6800;50.940;6.940;2024-03-25T19:32:16;99264.78;;;21.77;22.76
13456;BME280;6800;50.940;6.940;2024-03-25T19:36:17;99262.44;;;22.23;22.42
13456;BME280;6800;50.940;6.940;2024-03-25T19:40:20;99259.41;;;21.92;22.93
13456;BME280;6800;50.940;6.940;2024-03-25T19:44:24;99258.94;;;21.82;22.79
13456;BME280;6800;50.940;6.940;2024-03-25T19:48:25;99256.59;;;22.00;22.92
13456;BME280;6800;50.940;6.940;2024-03-25T19:52:25;99257.34;;;21.66;22.99
13456;BME280;6800;50.940;6.940;2024-03-25T19:56:26;99259.44;;;21.71;22.92
13456;BME280;6800;50.940;6.940;2024-03-25T20:00:26;99253.03;;;21.65;23.04
13456;BME280;6800;50.940;6.940;2024-03-25T20:04:27;99248.16;;;21.69;23.47
13456;BME280;6800;50.940;6.940;2024-03-25T20:08:28;99243.28;;;21.45;23.64
13456;BME280;6800;50.940;6.940;2024-03-25T20:12:31;99245.16;;;21.51;23.49
13456;BME280;6800;50.940;6.940;2024-03-25T20:16:31;99231.50;;;21.05;24.38
13456;BME280;6800;50.940;6.940;2024-03-25T20:20:32;99235.31;;;21.72;23.49
13456;BME280;6800;50.940;6.940;2024-03-25T20:24:32;99236.34;;;21.02;24.44
13456;BME280;6800;50.940;6.940;2024-03-25T20:28:33;99233.31;;;21.05;24.40
13456;BME280;6800;50.940;6.940;2024-03-25T20:32:33;99225.03;;;20.93;24.55
13456;BME280;6800;50.940;6.940;2024-03-25T20:36:34;99227.78;;;21.27;24.39
13456;BME280;6800;50.940;6.940;2024-03-25T20:40:34;99232.31;;;20.91;24.48
13456;BME280;6800;50.940;6.940;2024-03-25T20:44:35;99223.38;;;21.13;24.77
13456;BME280;6800;50.940;6.940;2024-03-25T20:48:36;99221.56;;;21.14;24.78
13456;BME280;6800;50.940;6.940;2024-03-25T20:52:36;99219.88;;;20.91;24.92
13456;BME280;6800;50.940;6.940;2024-03-25T20:56:38;99216.00;;;21.09;24.62
13456;BME280;6800;50.940;6.940;2024-03-25T21:00:38;99215.88;;;20.81;25.07
13456;BME280;6800;50.940;6.940;2024-03-25T21:04:39;99208.22;;;21.07;24.76
13456;BME280;6800;50.940;6.940;2024-03-25T21:08:39;99210.91;;;20.71;25.56
13456;BME280;6800;50.940;6.940;2024-03-25T21:12:40;99199.53;;;20.77;25.21
13456;BME280;6800;50.940;6.940;2024-03-25T21:16:40;99197.47;;;20.94;24.78
13456;BME280;6800;50.940;6.940;2024-03-25T21:20:41;99197.09;;;20.76;25.37
13456;BME280;6800;50.940;6.940;2024-03-25T21:24:42;99189.84;;;20.84;25.06
13456;BME280;6800;50.940;6.940;2024-03-25T21:28:43;99181.75;;;20.36;25.73